Main page
METAR-TAF:

METAR-TAF

Airports :

Ruben Berta International Airport

Uruguaiana, Rio Grande do Sul, Brazil

latitude: 29-47S, longitude: 057-02W, elevation: 74 m

METAR: missing

Time: 12:51 (15:51 UTC)

Forecast

The report was made 6 hours and 21 minutes ago, at 09:30 UTC
Forecast valid from 16 at 12 UTC to 16 at 24 UTC
Wind 8 kt from the Southeast
Visibility 10 km or more
Broken clouds at a height of 800 ft
Probability 40%
from 16 at 13 UTC to 16 at 15 UTC
Visibility: 8000 m
rain

TAF: SBUG 160930Z 1612/1624 14008KT 9999 BKN008 TN17/1612Z TX18/1617Z PROB40 1613/1615 8000 RA RMK PCX

Weather observations and forecasts of more than 4000 airports (METAR and TAF reports).

The available stations are represented by yellow and red dots on the map.

Hover mouse over dot to see the name of the station.

Then click to see weather observations and forecasts.

To change the map : click on the green buttons with a black cross to zoom in, on the green button with a dash to zoom out, or on the green arrows for adjacent maps.


METAR-TAF: